Time;durP1;ratioP1;P1;durP2;ratioP2;P2;SDS_P1;SDS_P2;PMS_P1;PMS_P2;Temp;Humidity;BMP_temperature;BMP_pressure;BME280_temperature;BME280_humidity;BME280_pressure;Samples;Min_cycle;Max_cycle;Signal;HPM_P1;HPM_P2
2021/08/12 00:00:49;;;;;;;15.90;4.70;;;;;;;;;;5036351;28;20437;-69
2021/08/12 00:03:15;;;;;;;17.80;4.55;;;;;;;;;;5036444;28;20061;-70
2021/08/12 00:05:41;;;;;;;8.40;4.18;;;;;;;;;;5036311;28;20387;-70
2021/08/12 00:08:07;;;;;;;9.77;5.15;;;;;;;;;;5036939;28;20418;-69
2021/08/12 00:10:33;;;;;;;6.88;4.40;;;;;;;;;;5036892;28;20040;-69
2021/08/12 00:12:59;;;;;;;10.20;4.15;;;;;;;;;;5036639;28;20193;-69
2021/08/12 00:15:25;;;;;;;8.18;4.32;;;;;;;;;;5036489;28;20032;-69
2021/08/12 00:17:52;;;;;;;6.70;4.70;;;;;;;;;;5036085;28;20033;-70
2021/08/12 00:20:18;;;;;;;5.63;4.43;;;;;;;;;;5036102;28;20139;-69
2021/08/12 00:22:44;;;;;;;6.43;4.03;;;;;;;;;;5036652;28;20104;-69
2021/08/12 00:25:10;;;;;;;8.73;4.28;;;;;;;;;;5036168;28;20025;-69
2021/08/12 00:27:37;;;;;;;5.03;4.40;;;;;;;;;;5035822;28;20021;-69
2021/08/12 00:30:03;;;;;;;4.65;4.25;;;;;;;;;;5036185;28;20025;-69
2021/08/12 00:32:29;;;;;;;5.07;4.53;;;;;;;;;;5035965;28;20044;-70
2021/08/12 00:34:55;;;;;;;5.13;4.38;;;;;;;;;;5035956;28;20068;-69
2021/08/12 00:37:21;;;;;;;6.88;3.97;;;;;;;;;;5035894;28;20497;-69
2021/08/12 00:39:47;;;;;;;12.38;4.82;;;;;;;;;;5035919;28;20116;-69
2021/08/12 00:42:13;;;;;;;8.93;3.15;;;;;;;;;;5035918;28;20044;-69
2021/08/12 00:44:39;;;;;;;4.50;4.10;;;;;;;;;;5035707;28;20521;-70
2021/08/12 00:47:05;;;;;;;4.57;3.97;;;;;;;;;;5035735;28;20479;-69
2021/08/12 00:49:36;;;;;;;6.53;4.18;;;;;;;;;;5035595;28;20498;-69
2021/08/12 00:52:02;;;;;;;3.87;3.47;;;;;;;;;;5036245;28;20495;-69
2021/08/12 00:54:28;;;;;;;9.00;4.68;;;;;;;;;;5036004;28;20018;-69
2021/08/12 00:56:54;;;;;;;5.85;4.40;;;;;;;;;;5035593;28;20052;-69
2021/08/12 00:59:21;;;;;;;5.65;5.10;;;;;;;;;;5035326;28;20053;-69
2021/08/12 01:01:47;;;;;;;5.90;4.07;;;;;;;;;;5035331;28;20040;-70
2021/08/12 01:04:13;;;;;;;4.57;3.92;;;;;;;;;;5035058;28;20040;-69
2021/08/12 01:06:45;;;;;;;4.28;3.65;;;;;;;;;;5035311;28;20065;-69
2021/08/12 01:09:13;;;;;;;8.45;4.45;;;;;;;;;;5035315;28;20120;-69
2021/08/12 01:11:44;;;;;;;9.57;4.68;;;;;;;;;;5035247;28;20034;-69
2021/08/12 01:14:15;;;;;;;4.82;4.00;;;;;;;;;;5035444;28;20060;-69
2021/08/12 01:16:51;;;;;;;10.88;4.32;;;;;;;;;;5035630;28;20029;-70
2021/08/12 01:19:37;;;;;;;4.38;3.75;;;;;;;;;;5035749;28;20035;-70
2021/08/12 01:22:04;;;;;;;4.15;3.72;;;;;;;;;;5021105;28;20128;-70
2021/08/12 01:24:31;;;;;;;4.88;4.40;;;;;;;;;;5035601;28;20379;-70
2021/08/12 01:26:59;;;;;;;4.68;4.28;;;;;;;;;;5035253;28;20025;-70
2021/08/12 01:29:45;;;;;;;5.28;4.07;;;;;;;;;;5035295;28;20379;-70
2021/08/12 01:32:15;;;;;;;5.75;4.50;;;;;;;;;;5020269;28;20379;-69
2021/08/12 01:35:01;;;;;;;10.68;3.97;;;;;;;;;;5034964;28;20108;-69
2021/08/12 01:37:31;;;;;;;6.18;4.68;;;;;;;;;;5020290;28;20025;-70
2021/08/12 01:39:57;;;;;;;10.32;4.03;;;;;;;;;;5035087;28;20034;-70
2021/08/12 01:42:26;;;;;;;5.72;4.05;;;;;;;;;;5035130;28;20025;-71
2021/08/12 01:44:54;;;;;;;4.80;4.28;;;;;;;;;;5035415;28;20022;-71
2021/08/12 01:47:20;;;;;;;10.77;4.18;;;;;;;;;;5035068;28;20104;-71
2021/08/12 01:49:46;;;;;;;4.35;3.95;;;;;;;;;;5034848;28;20017;-71
2021/08/12 01:52:12;;;;;;;10.77;4.18;;;;;;;;;;5034703;28;20471;-70
2021/08/12 01:54:38;;;;;;;5.95;4.28;;;;;;;;;;5034770;28;20379;-71
2021/08/12 01:57:04;;;;;;;4.25;3.83;;;;;;;;;;5034708;28;20104;-71
2021/08/12 01:59:30;;;;;;;8.45;4.45;;;;;;;;;;5035219;28;20132;-71
2021/08/12 02:01:56;;;;;;;4.50;4.10;;;;;;;;;;5034770;28;20095;-71
2021/08/12 02:04:22;;;;;;;4.93;4.10;;;;;;;;;;5034730;28;20438;-69
2021/08/12 02:06:48;;;;;;;5.82;4.47;;;;;;;;;;5034411;28;20419;-69
2021/08/12 02:09:14;;;;;;;4.38;3.97;;;;;;;;;;5034230;28;20036;-69
2021/08/12 02:11:40;;;;;;;8.00;3.92;;;;;;;;;;5034322;28;20041;-70
2021/08/12 02:14:06;;;;;;;4.97;4.18;;;;;;;;;;5034298;28;20480;-70
2021/08/12 02:16:33;;;;;;;10.15;5.10;;;;;;;;;;5034044;28;20032;-69
2021/08/12 02:18:59;;;;;;;5.40;4.82;;;;;;;;;;5034266;28;20100;-69
2021/08/12 02:21:30;;;;;;;7.43;4.35;;;;;;;;;;5034099;28;20079;-70
2021/08/12 02:23:59;;;;;;;5.75;5.07;;;;;;;;;;5034233;28;20113;-70
2021/08/12 02:26:26;;;;;;;12.20;4.97;;;;;;;;;;5034201;28;20022;-70
2021/08/12 02:28:52;;;;;;;4.65;3.53;;;;;;;;;;5034007;28;20082;-69
2021/08/12 02:31:18;;;;;;;4.30;3.85;;;;;;;;;;5033715;28;20026;-70
2021/08/12 02:33:45;;;;;;;4.57;3.78;;;;;;;;;;5034047;28;20037;-70
2021/08/12 02:36:11;;;;;;;7.20;4.30;;;;;;;;;;5034376;28;20029;-70
2021/08/12 02:38:38;;;;;;;6.95;4.05;;;;;;;;;;5033969;28;20033;-70
2021/08/12 02:41:04;;;;;;;8.75;4.80;;;;;;;;;;5033830;28;20025;-70
2021/08/12 02:43:30;;;;;;;6.63;3.97;;;;;;;;;;5033950;28;20056;-70
2021/08/12 02:45:58;;;;;;;7.82;4.25;;;;;;;;;;5034038;28;20053;-69
2021/08/12 02:48:25;;;;;;;4.10;3.72;;;;;;;;;;5033636;28;20032;-70
2021/08/12 02:50:51;;;;;;;4.93;4.43;;;;;;;;;;5033851;28;20033;-70
2021/08/12 02:53:17;;;;;;;4.32;3.55;;;;;;;;;;5033893;28;20052;-70
2021/08/12 02:55:43;;;;;;;6.97;3.83;;;;;;;;;;5033616;28;20030;-70
2021/08/12 02:58:09;;;;;;;10.02;5.07;;;;;;;;;;5033338;28;20045;-70
2021/08/12 03:00:35;;;;;;;11.88;4.35;;;;;;;;;;5034051;28;20104;-70
2021/08/12 03:03:01;;;;;;;6.65;4.07;;;;;;;;;;5033307;28;20459;-69
2021/08/12 03:05:27;;;;;;;6.32;4.32;;;;;;;;;;5033546;28;20463;-70
2021/08/12 03:07:53;;;;;;;9.65;4.78;;;;;;;;;;5033645;28;20493;-70
2021/08/12 03:10:19;;;;;;;6.97;4.32;;;;;;;;;;5033636;28;20021;-69
2021/08/12 03:12:47;;;;;;;5.72;4.68;;;;;;;;;;5033525;28;20044;-70
2021/08/12 03:15:13;;;;;;;5.82;4.20;;;;;;;;;;5033734;28;20029;-71
2021/08/12 03:17:39;;;;;;;5.50;4.40;;;;;;;;;;5033653;28;20353;-71
2021/08/12 03:20:06;;;;;;;8.48;4.75;;;;;;;;;;5033713;28;20152;-70
2021/08/12 03:22:32;;;;;;;6.70;4.93;;;;;;;;;;5034252;28;20061;-71
2021/08/12 03:24:58;;;;;;;12.77;4.10;;;;;;;;;;5034058;28;20025;-71
2021/08/12 03:27:24;;;;;;;16.17;4.80;;;;;;;;;;5034041;28;20022;-71
2021/08/12 03:29:51;;;;;;;7.03;4.70;;;;;;;;;;5037800;28;20422;-70
2021/08/12 03:32:18;;;;;;;9.93;4.85;;;;;;;;;;5037494;28;20029;-71
2021/08/12 03:34:44;;;;;;;9.27;4.78;;;;;;;;;;5038024;28;20026;-70
2021/08/12 03:37:10;;;;;;;5.55;4.53;;;;;;;;;;5037146;28;20100;-69
2021/08/12 03:39:36;;;;;;;6.03;4.38;;;;;;;;;;5036888;28;20029;-69
2021/08/12 03:42:02;;;;;;;6.03;4.72;;;;;;;;;;5037609;28;20033;-70
2021/08/12 03:44:28;;;;;;;5.95;4.32;;;;;;;;;;5036930;28;20013;-70
2021/08/12 03:46:54;;;;;;;6.43;4.78;;;;;;;;;;5037028;28;20021;-70
2021/08/12 03:49:20;;;;;;;5.45;4.53;;;;;;;;;;5036915;28;20064;-69
2021/08/12 03:51:46;;;;;;;8.38;5.50;;;;;;;;;;5037196;28;20365;-70
2021/08/12 03:54:12;;;;;;;7.03;5.95;;;;;;;;;;5037817;28;20371;-70
2021/08/12 03:56:38;;;;;;;6.15;5.55;;;;;;;;;;5037207;28;20032;-70
2021/08/12 03:59:05;;;;;;;11.73;5.65;;;;;;;;;;5036918;28;20049;-70
2021/08/12 04:01:31;;;;;;;7.55;4.50;;;;;;;;;;5036965;28;20064;-70
2021/08/12 04:03:57;;;;;;;10.63;5.15;;;;;;;;;;5036720;28;20025;-70
2021/08/12 04:06:23;;;;;;;6.25;5.68;;;;;;;;;;5037080;28;20017;-70
2021/08/12 04:08:49;;;;;;;8.38;5.35;;;;;;;;;;5036740;28;20085;-68
2021/08/12 04:11:15;;;;;;;9.82;5.72;;;;;;;;;;5036596;28;20028;-70
2021/08/12 04:13:41;;;;;;;12.50;5.88;;;;;;;;;;5036782;28;20037;-70
2021/08/12 04:16:07;;;;;;;7.90;5.38;;;;;;;;;;5036715;28;20059;-71
2021/08/12 04:18:33;;;;;;;7.35;5.07;;;;;;;;;;5037143;28;20082;-70
2021/08/12 04:20:59;;;;;;;7.63;4.95;;;;;;;;;;5036700;28;20048;-70
2021/08/12 04:23:25;;;;;;;6.53;5.60;;;;;;;;;;5036616;28;20036;-70
2021/08/12 04:25:52;;;;;;;6.20;5.50;;;;;;;;;;5036684;28;20022;-69
2021/08/12 04:28:18;;;;;;;10.60;5.35;;;;;;;;;;5036193;28;20017;-69
2021/08/12 04:30:44;;;;;;;7.45;5.30;;;;;;;;;;5036301;28;20034;-70
2021/08/12 04:33:10;;;;;;;11.18;6.38;;;;;;;;;;5036258;28;20026;-70
2021/08/12 04:35:36;;;;;;;6.55;5.30;;;;;;;;;;5036259;28;20021;-70
2021/08/12 04:38:02;;;;;;;5.60;5.03;;;;;;;;;;5036552;28;20029;-70
2021/08/12 04:40:28;;;;;;;7.20;4.82;;;;;;;;;;5036385;28;20021;-70
2021/08/12 04:42:54;;;;;;;6.32;5.43;;;;;;;;;;5036569;28;20040;-69
2021/08/12 04:45:21;;;;;;;6.20;5.60;;;;;;;;;;5036427;28;20029;-70
2021/08/12 04:47:47;;;;;;;7.50;6.25;;;;;;;;;;5035861;28;20195;-69
2021/08/12 04:50:15;;;;;;;5.47;5.00;;;;;;;;;;5036525;28;20029;-69
2021/08/12 04:52:41;;;;;;;6.63;6.00;;;;;;;;;;5036503;28;20479;-70
2021/08/12 04:55:08;;;;;;;6.65;5.93;;;;;;;;;;5036250;28;20196;-70
2021/08/12 04:57:34;;;;;;;7.70;5.85;;;;;;;;;;5035761;28;20022;-70
2021/08/12 05:00:01;;;;;;;7.80;4.30;;;;;;;;;;5036107;28;20110;-70
2021/08/12 05:02:27;;;;;;;8.48;6.15;;;;;;;;;;5035833;28;20029;-70
2021/08/12 05:04:53;;;;;;;5.70;5.05;;;;;;;;;;5036029;28;20026;-70
2021/08/12 05:07:19;;;;;;;5.32;4.70;;;;;;;;;;5035791;28;20101;-70
2021/08/12 05:09:45;;;;;;;7.55;5.75;;;;;;;;;;5035421;28;20022;-70
2021/08/12 05:12:11;;;;;;;8.63;5.60;;;;;;;;;;5035669;28;20034;-70
2021/08/12 05:14:37;;;;;;;10.85;5.82;;;;;;;;;;5035897;28;20105;-69
2021/08/12 05:17:03;;;;;;;7.07;5.05;;;;;;;;;;5035092;28;20075;-69
2021/08/12 05:19:29;;;;;;;9.82;6.45;;;;;;;;;;5035269;28;20033;-69
2021/08/12 05:21:55;;;;;;;6.63;5.18;;;;;;;;;;5035142;28;20030;-69
2021/08/12 05:24:21;;;;;;;6.68;5.07;;;;;;;;;;5035292;28;20021;-69
2021/08/12 05:26:47;;;;;;;9.13;5.78;;;;;;;;;;5035037;28;20033;-69
2021/08/12 05:29:13;;;;;;;7.18;5.85;;;;;;;;;;5035178;28;20033;-69
2021/08/12 05:31:39;;;;;;;8.45;5.53;;;;;;;;;;5034986;28;20026;-71
2021/08/12 05:34:05;;;;;;;7.65;5.75;;;;;;;;;;5035852;28;20036;-69
2021/08/12 05:36:31;;;;;;;8.88;5.70;;;;;;;;;;5034953;28;20028;-70
2021/08/12 05:38:58;;;;;;;13.80;7.00;;;;;;;;;;5035615;28;20075;-70
2021/08/12 05:41:24;;;;;;;6.57;5.95;;;;;;;;;;5035221;28;20095;-70
2021/08/12 05:43:50;;;;;;;7.63;5.90;;;;;;;;;;5035095;28;20025;-70
2021/08/12 05:46:16;;;;;;;11.45;6.65;;;;;;;;;;5034406;28;20033;-69
2021/08/12 05:48:42;;;;;;;11.90;6.55;;;;;;;;;;5034752;28;20028;-69
2021/08/12 05:51:08;;;;;;;10.18;5.88;;;;;;;;;;5034178;28;20478;-69
2021/08/12 05:53:35;;;;;;;7.40;6.35;;;;;;;;;;5034673;28;20120;-70
2021/08/12 05:56:02;;;;;;;5.72;5.15;;;;;;;;;;5034265;28;20021;-69
2021/08/12 05:58:32;;;;;;;8.77;5.25;;;;;;;;;;5033950;28;20118;-69
2021/08/12 06:00:59;;;;;;;6.50;5.47;;;;;;;;;;5033562;28;20475;-70
2021/08/12 06:03:25;;;;;;;6.10;5.18;;;;;;;;;;5034288;28;20029;-71
2021/08/12 06:05:55;;;;;;;5.55;5.00;;;;;;;;;;5034263;28;20475;-69
2021/08/12 06:08:24;;;;;;;5.70;5.03;;;;;;;;;;5034741;28;20030;-70
2021/08/12 06:10:51;;;;;;;6.60;5.35;;;;;;;;;;5033430;28;20426;-70
2021/08/12 06:13:17;;;;;;;60.08;6.68;;;;;;;;;;5034949;28;20061;-71
2021/08/12 06:15:43;;;;;;;7.22;5.68;;;;;;;;;;5035336;28;20032;-71
2021/08/12 06:18:09;;;;;;;5.15;4.65;;;;;;;;;;5034911;28;20494;-71
2021/08/12 06:20:35;;;;;;;6.95;5.15;;;;;;;;;;5035459;28;20025;-71
2021/08/12 06:23:01;;;;;;;6.78;6.07;;;;;;;;;;5035053;28;20446;-71
2021/08/12 06:25:27;;;;;;;5.38;4.85;;;;;;;;;;5035346;28;20025;-71
2021/08/12 06:27:54;;;;;;;5.82;5.22;;;;;;;;;;5035219;28;20021;-71
2021/08/12 06:30:20;;;;;;;8.95;5.10;;;;;;;;;;5034353;28;20025;-72
2021/08/12 06:32:46;;;;;;;8.38;5.18;;;;;;;;;;5034882;28;20068;-71
2021/08/12 06:35:12;;;;;;;10.20;5.07;;;;;;;;;;5034218;28;20463;-71
2021/08/12 06:37:46;;;;;;;5.82;5.22;;;;;;;;;;5034178;28;20033;-69
2021/08/12 06:40:13;;;;;;;5.30;4.47;;;;;;;;;;5034179;28;20537;-70
2021/08/12 06:42:39;;;;;;;4.80;4.28;;;;;;;;;;5033689;28;20029;-69
2021/08/12 06:45:06;;;;;;;14.80;4.80;;;;;;;;;;5033795;28;20029;-70
2021/08/12 06:47:32;;;;;;;4.53;4.13;;;;;;;;;;5033740;28;20521;-69
2021/08/12 06:49:58;;;;;;;5.20;4.70;;;;;;;;;;5033854;28;20103;-70
2021/08/12 06:52:24;;;;;;;9.85;6.60;;;;;;;;;;5033860;28;20036;-70
2021/08/12 06:54:50;;;;;;;11.73;5.70;;;;;;;;;;5033672;28;20109;-71
2021/08/12 06:57:16;;;;;;;9.20;6.75;;;;;;;;;;5033406;28;20084;-71
2021/08/12 06:59:42;;;;;;;9.50;5.63;;;;;;;;;;5034715;28;20481;-70
2021/08/12 07:02:08;;;;;;;9.82;5.88;;;;;;;;;;5033588;28;20052;-70
2021/08/12 07:04:34;;;;;;;7.97;5.50;;;;;;;;;;5038031;28;20100;-70
2021/08/12 07:07:00;;;;;;;6.85;6.15;;;;;;;;;;5037821;28;20025;-70
2021/08/12 07:09:27;;;;;;;20.65;5.45;;;;;;;;;;5037695;28;20021;-71
2021/08/12 07:11:53;;;;;;;6.05;5.53;;;;;;;;;;5037555;28;20463;-71
2021/08/12 07:14:19;;;;;;;9.27;6.10;;;;;;;;;;5037680;28;20175;-70
2021/08/12 07:16:45;;;;;;;8.15;5.57;;;;;;;;;;5037256;28;20018;-71
2021/08/12 07:19:11;;;;;;;7.28;5.70;;;;;;;;;;5037518;28;20060;-70
2021/08/12 07:21:39;;;;;;;5.90;4.93;;;;;;;;;;5037543;28;20100;-70
2021/08/12 07:24:05;;;;;;;8.05;5.30;;;;;;;;;;5037681;28;20096;-70
2021/08/12 07:26:31;;;;;;;12.13;4.95;;;;;;;;;;5037127;28;20475;-71
2021/08/12 07:28:57;;;;;;;6.68;5.65;;;;;;;;;;5036871;28;20021;-70
2021/08/12 07:31:24;;;;;;;7.57;6.88;;;;;;;;;;5037371;28;20068;-70
2021/08/12 07:33:50;;;;;;;6.65;5.93;;;;;;;;;;5037082;28;20038;-71
2021/08/12 07:36:16;;;;;;;7.93;5.07;;;;;;;;;;5036784;28;20028;-70
2021/08/12 07:38:42;;;;;;;7.65;5.72;;;;;;;;;;5037045;28;20057;-70
2021/08/12 07:41:08;;;;;;;5.50;4.78;;;;;;;;;;5036983;28;20087;-71
2021/08/12 07:43:34;;;;;;;12.93;5.22;;;;;;;;;;5037175;28;20032;-71
2021/08/12 07:46:00;;;;;;;6.43;5.82;;;;;;;;;;5037533;28;20151;-71
2021/08/12 07:48:26;;;;;;;7.95;6.80;;;;;;;;;;5036984;28;20025;-70
2021/08/12 07:50:52;;;;;;;7.18;5.53;;;;;;;;;;5037018;28;20108;-70
2021/08/12 07:53:19;;;;;;;5.93;5.32;;;;;;;;;;5036841;28;20045;-70
2021/08/12 07:55:45;;;;;;;6.47;5.57;;;;;;;;;;5036650;28;20026;-71
2021/08/12 07:58:11;;;;;;;8.50;5.30;;;;;;;;;;5036249;28;20499;-72
2021/08/12 08:00:37;;;;;;;6.82;4.88;;;;;;;;;;5036995;28;20021;-70
2021/08/12 08:03:03;;;;;;;8.88;4.90;;;;;;;;;;5036705;28;20022;-71
2021/08/12 08:05:29;;;;;;;6.97;4.95;;;;;;;;;;5036724;28;20029;-69
2021/08/12 08:07:55;;;;;;;14.57;5.80;;;;;;;;;;5036516;28;20463;-70
2021/08/12 08:10:22;;;;;;;5.70;5.20;;;;;;;;;;5036450;28;20080;-71
2021/08/12 08:12:49;;;;;;;6.05;4.90;;;;;;;;;;5036715;28;20033;-70
2021/08/12 08:15:15;;;;;;;5.57;5.07;;;;;;;;;;5035995;28;20352;-71
2021/08/12 08:17:41;;;;;;;6.95;4.90;;;;;;;;;;5036406;28;20033;-70
2021/08/12 08:20:07;;;;;;;5.22;4.60;;;;;;;;;;5036436;28;20252;-70
2021/08/12 08:22:34;;;;;;;8.07;4.72;;;;;;;;;;5036087;28;20030;-70
2021/08/12 08:25:00;;;;;;;6.38;4.25;;;;;;;;;;5036022;28;20160;-70
2021/08/12 08:27:26;;;;;;;5.15;4.35;;;;;;;;;;5035970;28;20490;-70
2021/08/12 08:29:52;;;;;;;4.93;4.22;;;;;;;;;;5036045;28;20025;-69
2021/08/12 08:32:20;;;;;;;5.13;4.53;;;;;;;;;;5035968;28;20034;-70
2021/08/12 08:34:46;;;;;;;7.18;4.68;;;;;;;;;;5035972;28;20028;-70
2021/08/12 08:37:12;;;;;;;6.93;4.80;;;;;;;;;;5035800;28;20026;-70
2021/08/12 08:39:38;;;;;;;7.97;4.65;;;;;;;;;;5034305;28;20479;-70
2021/08/12 08:42:05;;;;;;;4.22;3.83;;;;;;;;;;5036190;28;20116;-71
2021/08/12 08:44:31;;;;;;;4.10;3.80;;;;;;;;;;5035389;28;20475;-70
2021/08/12 08:46:58;;;;;;;6.50;4.22;;;;;;;;;;5035941;28;20036;-70
2021/08/12 08:49:24;;;;;;;4.82;4.32;;;;;;;;;;5035700;28;20028;-70
2021/08/12 08:51:50;;;;;;;6.88;4.47;;;;;;;;;;5035314;28;20025;-70
2021/08/12 08:54:16;;;;;;;7.15;5.35;;;;;;;;;;5035091;28;20022;-71
2021/08/12 08:56:43;;;;;;;7.30;5.22;;;;;;;;;;5035132;28;20034;-71
2021/08/12 08:59:09;;;;;;;5.38;4.88;;;;;;;;;;5035549;28;20499;-70
2021/08/12 09:01:35;;;;;;;4.22;3.85;;;;;;;;;;5035471;28;20022;-69
2021/08/12 09:04:01;;;;;;;7.38;5.75;;;;;;;;;;5035322;28;20109;-71
2021/08/12 09:06:27;;;;;;;10.00;4.88;;;;;;;;;;5035460;28;20262;-71
2021/08/12 09:08:55;;;;;;;5.13;4.60;;;;;;;;;;5035046;28;20032;-70
2021/08/12 09:11:24;;;;;;;4.93;4.38;;;;;;;;;;5033805;28;20033;-70
2021/08/12 09:13:50;;;;;;;5.15;4.50;;;;;;;;;;5035260;28;20141;-69
2021/08/12 09:16:33;;;;;;;4.72;4.32;;;;;;;;;;5034009;28;20467;-69
2021/08/12 09:19:20;;;;;;;6.15;4.63;;;;;;;;;;5032816;28;20025;-69
2021/08/12 09:21:47;;;;;;;5.60;5.10;;;;;;;;;;5034903;28;20029;-68
2021/08/12 09:24:13;;;;;;;7.00;4.78;;;;;;;;;;5034968;28;20052;-69
2021/08/12 09:26:39;;;;;;;5.05;4.55;;;;;;;;;;5032122;28;20024;-70
2021/08/12 09:29:06;;;;;;;5.25;4.78;;;;;;;;;;5033796;28;20026;-69
2021/08/12 09:31:32;;;;;;;4.95;4.55;;;;;;;;;;5034367;28;20061;-69
2021/08/12 09:33:58;;;;;;;11.63;4.50;;;;;;;;;;5034525;28;20033;-70
2021/08/12 09:36:26;;;;;;;5.03;4.53;;;;;;;;;;5033795;28;20427;-71
2021/08/12 09:39:12;;;;;;;4.85;4.43;;;;;;;;;;5034675;28;20073;-68
2021/08/12 09:41:42;;;;;;;5.07;4.40;;;;;;;;;;5020350;28;20451;-69
2021/08/12 09:44:28;;;;;;;8.73;5.63;;;;;;;;;;5034493;28;20391;-69
2021/08/12 09:46:55;;;;;;;16.52;9.45;;;;;;;;;;5019883;28;20026;-69
2021/08/12 09:49:21;;;;;;;26.58;13.77;;;;;;;;;;5034468;28;20029;-70
2021/08/12 09:51:48;;;;;;;17.48;10.05;;;;;;;;;;5033978;28;20071;-69
2021/08/12 09:54:14;;;;;;;21.00;11.82;;;;;;;;;;5034742;28;20486;-68
2021/08/12 09:56:41;;;;;;;32.83;13.23;;;;;;;;;;5034242;28;20049;-69
2021/08/12 09:59:07;;;;;;;21.70;12.35;;;;;;;;;;5033910;28;20468;-69
2021/08/12 10:01:34;;;;;;;21.50;11.50;;;;;;;;;;5033805;28;20151;-68
2021/08/12 10:04:18;;;;;;;24.65;12.32;;;;;;;;;;5034069;28;20438;-70
2021/08/12 10:06:45;;;;;;;19.67;11.85;;;;;;;;;;5034438;28;20025;-70
2021/08/12 10:09:16;;;;;;;24.88;11.10;;;;;;;;;;5034234;28;20025;-70
2021/08/12 10:11:42;;;;;;;20.13;12.50;;;;;;;;;;5034064;28;20124;-70
2021/08/12 10:14:09;;;;;;;15.65;10.27;;;;;;;;;;5034690;28;20032;-69
2021/08/12 10:16:35;;;;;;;22.33;9.77;;;;;;;;;;5034595;28;20025;-70
2021/08/12 10:19:04;;;;;;;17.48;10.07;;;;;;;;;;5034347;28;20026;-70
2021/08/12 10:21:30;;;;;;;15.25;9.32;;;;;;;;;;5034092;28;20022;-70
2021/08/12 10:23:57;;;;;;;16.20;10.07;;;;;;;;;;5034333;28;20025;-68
2021/08/12 10:26:24;;;;;;;17.15;9.90;;;;;;;;;;5033800;28;20017;-68
2021/08/12 10:28:52;;;;;;;10.68;8.23;;;;;;;;;;5033740;28;20124;-68
2021/08/12 10:31:22;;;;;;;15.23;10.02;;;;;;;;;;5033915;28;20031;-68
2021/08/12 10:33:48;;;;;;;13.05;8.68;;;;;;;;;;5033937;28;20045;-68
2021/08/12 10:36:14;;;;;;;21.45;9.77;;;;;;;;;;5033829;28;20021;-68
2021/08/12 10:38:40;;;;;;;16.67;10.20;;;;;;;;;;5033677;28;20076;-68
2021/08/12 10:41:06;;;;;;;17.83;9.90;;;;;;;;;;5033615;28;20509;-68
2021/08/12 10:43:32;;;;;;;14.82;9.50;;;;;;;;;;5034162;28;20426;-68
2021/08/12 10:45:58;;;;;;;18.95;10.50;;;;;;;;;;5033610;28;20030;-69
2021/08/12 10:48:25;;;;;;;16.90;9.23;;;;;;;;;;5033472;28;20029;-69
2021/08/12 10:51:11;;;;;;;16.23;9.77;;;;;;;;;;5033562;28;20028;-68
2021/08/12 10:53:37;;;;;;;13.70;8.43;;;;;;;;;;5018940;28;20117;-68
2021/08/12 10:56:04;;;;;;;17.75;8.90;;;;;;;;;;5033581;28;20061;-68
2021/08/12 10:58:39;;;;;;;11.48;8.18;;;;;;;;;;5033503;28;20049;-68
2021/08/12 11:01:07;;;;;;;13.20;9.35;;;;;;;;;;5033992;28;20032;-68
2021/08/12 11:03:43;;;;;;;14.60;8.60;;;;;;;;;;5033819;28;20022;-68
2021/08/12 11:06:14;;;;;;;13.40;7.90;;;;;;;;;;5033522;28;20460;-68
2021/08/12 11:08:57;;;;;;;16.98;8.85;;;;;;;;;;5034027;28;20383;-68
2021/08/12 11:11:43;;;;;;;13.93;7.68;;;;;;;;;;5033704;28;20033;-68
2021/08/12 11:14:10;;;;;;;10.48;7.82;;;;;;;;;;5018679;28;20032;-68
2021/08/12 11:16:53;;;;;;;12.55;8.07;;;;;;;;;;5033321;28;20028;-68
2021/08/12 11:19:39;;;;;;;9.15;8.07;;;;;;;;;;5033918;28;20029;-68
2021/08/12 11:22:25;;;;;;;9.65;7.25;;;;;;;;;;5019151;28;20087;-68
2021/08/12 11:24:51;;;;;;;10.45;6.47;;;;;;;;;;5033321;28;20026;-69
2021/08/12 11:27:30;;;;;;;9.77;6.82;;;;;;;;;;5032960;28;20071;-68
2021/08/12 11:29:56;;;;;;;12.15;7.72;;;;;;;;;;5033740;28;20104;-68
2021/08/12 11:32:22;;;;;;;10.45;7.13;;;;;;;;;;5033180;28;20047;-68
2021/08/12 11:34:57;;;;;;;8.43;6.50;;;;;;;;;;5033219;28;20037;-68
2021/08/12 11:37:24;;;;;;;10.10;6.80;;;;;;;;;;5033241;28;20033;-69
2021/08/12 11:39:56;;;;;;;7.85;6.18;;;;;;;;;;5033735;28;20116;-70
2021/08/12 11:42:43;;;;;;;10.68;6.95;;;;;;;;;;5033069;28;20064;-71
2021/08/12 11:45:11;;;;;;;10.48;7.45;;;;;;;;;;5019444;28;20094;-70
2021/08/12 11:47:37;;;;;;;10.32;6.72;;;;;;;;;;5033370;28;20109;-71
2021/08/12 11:50:04;;;;;;;10.48;6.53;;;;;;;;;;5035603;28;20064;-71
2021/08/12 11:52:32;;;;;;;10.43;6.57;;;;;;;;;;5037203;28;20038;-71
2021/08/12 11:55:01;;;;;;;8.70;6.72;;;;;;;;;;5037681;28;20030;-71
2021/08/12 11:57:43;;;;;;;8.07;6.13;;;;;;;;;;5036468;28;20517;-71
2021/08/12 12:00:13;;;;;;;10.80;6.35;;;;;;;;;;5037478;28;20025;-72
2021/08/12 12:02:54;;;;;;;6.57;5.68;;;;;;;;;;5036959;28;20025;-71
2021/08/12 12:05:21;;;;;;;7.45;5.97;;;;;;;;;;5037696;28;20029;-71
2021/08/12 12:07:48;;;;;;;11.32;6.93;;;;;;;;;;5036421;28;20033;-69
2021/08/12 12:10:22;;;;;;;9.95;5.65;;;;;;;;;;5036413;28;20040;-68
2021/08/12 12:12:48;;;;;;;9.18;6.03;;;;;;;;;;5036396;28;20037;-68
2021/08/12 12:15:28;;;;;;;7.50;6.32;;;;;;;;;;5036269;28;20426;-68
2021/08/12 12:17:54;;;;;;;8.05;5.90;;;;;;;;;;5036833;28;20022;-68
2021/08/12 12:20:20;;;;;;;6.72;5.38;;;;;;;;;;5036174;28;20025;-69
2021/08/12 12:23:02;;;;;;;5.95;5.30;;;;;;;;;;5036262;28;20056;-69
2021/08/12 12:25:28;;;;;;;7.78;5.45;;;;;;;;;;5036217;28;20032;-69
2021/08/12 12:27:56;;;;;;;7.63;6.43;;;;;;;;;;5036148;28;20030;-68
2021/08/12 12:30:22;;;;;;;5.38;4.90;;;;;;;;;;5035849;28;20056;-68
2021/08/12 12:33:08;;;;;;;7.90;6.10;;;;;;;;;;5036360;28;20072;-68
2021/08/12 12:35:36;;;;;;;8.77;6.03;;;;;;;;;;5021567;28;20475;-68
2021/08/12 12:38:03;;;;;;;7.60;6.00;;;;;;;;;;5035617;28;20468;-69
2021/08/12 12:40:30;;;;;;;8.18;6.32;;;;;;;;;;5035763;28;20060;-68
2021/08/12 12:42:56;;;;;;;8.43;4.95;;;;;;;;;;5036289;28;20030;-68
2021/08/12 12:45:22;;;;;;;8.02;5.93;;;;;;;;;;5035953;28;20032;-68
2021/08/12 12:47:49;;;;;;;5.78;4.95;;;;;;;;;;5035666;28;20022;-68
2021/08/12 12:50:24;;;;;;;7.45;5.50;;;;;;;;;;5035702;28;20022;-68
2021/08/12 12:52:52;;;;;;;6.97;4.95;;;;;;;;;;5035399;28;20030;-69
2021/08/12 12:55:18;;;;;;;6.38;5.35;;;;;;;;;;5035555;28;20029;-68
2021/08/12 12:57:46;;;;;;;7.63;5.50;;;;;;;;;;5035579;28;20053;-68
2021/08/12 13:00:12;;;;;;;5.93;5.32;;;;;;;;;;5034613;28;20031;-70
2021/08/12 13:02:38;;;;;;;7.53;5.65;;;;;;;;;;5035568;28;20044;-69
2021/08/12 13:05:04;;;;;;;7.88;6.35;;;;;;;;;;5035604;28;20061;-69
2021/08/12 13:07:30;;;;;;;5.95;5.35;;;;;;;;;;5035019;28;20360;-69
2021/08/12 13:09:56;;;;;;;7.05;5.28;;;;;;;;;;5034887;28;20030;-69
2021/08/12 13:12:30;;;;;;;6.93;5.22;;;;;;;;;;5035073;28;20091;-69
2021/08/12 13:15:12;;;;;;;6.03;5.43;;;;;;;;;;5035730;28;20030;-70
2021/08/12 13:17:38;;;;;;;7.35;5.20;;;;;;;;;;5034861;28;20032;-69
2021/08/12 13:20:20;;;;;;;8.50;5.22;;;;;;;;;;5034927;28;20628;-69
2021/08/12 13:22:47;;;;;;;7.10;5.10;;;;;;;;;;5035674;28;20061;-69
2021/08/12 13:25:14;;;;;;;6.10;5.40;;;;;;;;;;5035095;28;20037;-69
2021/08/12 13:27:42;;;;;;;5.68;5.07;;;;;;;;;;5035190;28;20423;-69
2021/08/12 13:30:09;;;;;;;5.90;5.40;;;;;;;;;;5035156;28;20095;-69
2021/08/12 13:32:36;;;;;;;5.90;5.28;;;;;;;;;;5034600;28;20051;-69
2021/08/12 13:35:02;;;;;;;8.13;5.10;;;;;;;;;;5035015;28;20017;-69
2021/08/12 13:37:28;;;;;;;5.85;5.25;;;;;;;;;;5035187;28;20033;-69
2021/08/12 13:39:54;;;;;;;8.32;5.03;;;;;;;;;;5034605;28;20360;-69
2021/08/12 13:42:20;;;;;;;6.72;4.55;;;;;;;;;;5034946;28;20079;-69
2021/08/12 13:44:46;;;;;;;7.05;4.72;;;;;;;;;;5034634;28;20095;-69
2021/08/12 13:47:12;;;;;;;4.88;3.88;;;;;;;;;;5034407;28;20057;-69
2021/08/12 13:49:38;;;;;;;5.45;4.43;;;;;;;;;;5035128;28;20061;-69
2021/08/12 13:52:05;;;;;;;5.50;4.55;;;;;;;;;;5034841;28;20034;-69
2021/08/12 13:54:31;;;;;;;5.45;4.47;;;;;;;;;;5034803;28;20030;-70
2021/08/12 13:56:57;;;;;;;5.28;4.78;;;;;;;;;;5034261;28;20112;-70
2021/08/12 13:59:23;;;;;;;9.43;5.50;;;;;;;;;;5034387;28;20056;-71
2021/08/12 14:01:50;;;;;;;6.15;4.85;;;;;;;;;;5034567;28;20538;-71
2021/08/12 14:04:18;;;;;;;7.10;6.25;;;;;;;;;;5034810;28;20075;-71
2021/08/12 14:06:44;;;;;;;7.65;5.50;;;;;;;;;;5034794;28;20088;-70
2021/08/12 14:09:10;;;;;;;5.55;5.05;;;;;;;;;;5034301;28;20411;-72
2021/08/12 14:11:36;;;;;;;5.57;4.43;;;;;;;;;;5034607;28;20030;-73
2021/08/12 14:14:04;;;;;;;5.80;4.38;;;;;;;;;;5034892;28;20041;-74
2021/08/12 14:16:30;;;;;;;4.90;4.40;;;;;;;;;;5034602;28;20057;-72
2021/08/12 14:18:56;;;;;;;5.38;4.82;;;;;;;;;;5034408;28;20034;-72
2021/08/12 14:21:22;;;;;;;5.75;4.90;;;;;;;;;;5034373;28;20021;-71
2021/08/12 14:23:49;;;;;;;7.28;4.40;;;;;;;;;;5035035;28;20036;-73
2021/08/12 14:26:15;;;;;;;5.25;4.68;;;;;;;;;;5034670;28;20150;-73
2021/08/12 14:28:41;;;;;;;6.80;4.20;;;;;;;;;;5034682;28;20083;-74
2021/08/12 14:31:09;;;;;;;6.03;4.82;;;;;;;;;;5034201;28;20029;-72
2021/08/12 14:33:36;;;;;;;5.20;3.65;;;;;;;;;;5034848;28;20037;-72
2021/08/12 14:36:02;;;;;;;6.03;4.13;;;;;;;;;;5034894;28;20029;-72
2021/08/12 14:38:29;;;;;;;9.75;5.45;;;;;;;;;;5034475;28;20116;-78
2021/08/12 14:40:57;;;;;;;7.18;5.07;;;;;;;;;;5034613;28;20544;-77